createdAt,value
2022-11-18T00:00:31.483Z,93.98
2022-11-18T00:01:31.598Z,93.98
2022-11-18T00:02:31.540Z,94.23
2022-11-18T00:03:31.492Z,94.23
2022-11-18T00:04:31.427Z,94.33
2022-11-18T00:05:31.424Z,94.23
2022-11-18T00:06:31.417Z,94.23
2022-11-18T00:07:31.412Z,94.33
2022-11-18T00:08:31.405Z,94.23
2022-11-18T00:09:31.378Z,94.23
2022-11-18T00:10:31.334Z,94.12
2022-11-18T00:11:31.341Z,94.12
2022-11-18T00:12:31.388Z,94.33
2022-11-18T00:13:31.413Z,94.43
2022-11-18T00:14:31.379Z,94.54
2022-11-18T00:15:31.962Z,94.64
2022-11-18T00:16:31.264Z,94.74
2022-11-18T00:17:31.268Z,94.64
2022-11-18T00:18:31.295Z,94.64
2022-11-18T00:19:31.259Z,94.74
2022-11-18T00:20:31.394Z,94.74
2022-11-18T00:21:31.202Z,94.74
2022-11-18T00:22:31.195Z,94.74
2022-11-18T00:23:31.164Z,94.64
2022-11-18T00:24:31.189Z,94.64
2022-11-18T00:25:31.146Z,94.74
2022-11-18T00:26:31.133Z,94.54
2022-11-18T00:27:31.106Z,94.43
2022-11-18T00:28:31.095Z,94.33
2022-11-18T00:29:31.125Z,94.12
2022-11-18T00:30:31.099Z,94.08
2022-11-18T00:31:31.111Z,94.08
2022-11-18T00:32:31.057Z,93.88
2022-11-18T00:33:31.016Z,93.77
2022-11-18T00:34:31.008Z,93.88
2022-11-18T00:35:31.015Z,93.77
2022-11-18T00:36:31.039Z,93.77
2022-11-18T00:37:30.980Z,93.57
2022-11-18T00:38:30.969Z,93.67
2022-11-18T00:39:30.984Z,93.67
2022-11-18T00:40:30.941Z,93.67
2022-11-18T00:41:30.950Z,93.67
2022-11-18T00:42:30.952Z,93.57
2022-11-18T00:43:30.914Z,93.57
2022-11-18T00:44:30.880Z,93.26
2022-11-18T00:45:30.889Z,93.57
2022-11-18T00:46:31.537Z,94.18
2022-11-18T00:47:30.901Z,94.80
2022-11-18T00:48:30.895Z,94.90
2022-11-18T00:49:30.917Z,95.10
2022-11-18T00:50:30.820Z,95.25
2022-11-18T00:51:30.842Z,95.66
2022-11-18T00:52:30.777Z,95.66
2022-11-18T00:53:30.810Z,95.66
2022-11-18T00:54:30.766Z,95.97
2022-11-18T00:55:30.772Z,96.17
2022-11-18T00:56:30.742Z,96.07
2022-11-18T00:57:30.715Z,96.07
2022-11-18T00:58:30.682Z,96.07
2022-11-18T00:59:30.692Z,96.38
2022-11-18T01:00:30.703Z,96.48
2022-11-18T01:01:30.706Z,96.38
2022-11-18T01:02:30.662Z,96.38
2022-11-18T01:03:30.624Z,96.48
2022-11-18T01:04:30.624Z,96.38
2022-11-18T01:05:30.645Z,96.48
2022-11-18T01:06:38.490Z,96.48
2022-11-18T01:07:30.659Z,96.48
2022-11-18T01:08:30.587Z,96.48
2022-11-18T01:09:30.572Z,96.48
2022-11-18T01:10:30.554Z,96.48
2022-11-18T01:11:30.526Z,96.58
2022-11-18T01:12:30.640Z,96.58
2022-11-18T01:13:30.509Z,96.28
2022-11-18T01:14:30.600Z,96.28
2022-11-18T01:15:30.482Z,96.38
2022-11-18T01:16:30.474Z,96.38
2022-11-18T01:17:30.467Z,96.48
2022-11-18T01:18:30.503Z,96.48
2022-11-18T01:19:30.456Z,96.69
2022-11-18T01:20:30.548Z,96.69
2022-11-18T01:21:30.399Z,96.69
2022-11-18T01:22:30.375Z,96.48
2022-11-18T01:23:30.391Z,96.17
2022-11-18T01:24:30.367Z,96.17
2022-11-18T01:25:30.403Z,96.07
2022-11-18T01:26:30.331Z,95.76
2022-11-18T01:27:30.380Z,95.56
2022-11-18T01:28:30.336Z,95.66
2022-11-18T01:29:30.302Z,95.76
2022-11-18T01:30:30.275Z,95.97
2022-11-18T01:31:30.297Z,95.97
2022-11-18T01:32:30.235Z,95.97
2022-11-18T01:33:30.268Z,96.07
2022-11-18T01:34:30.245Z,95.76
2022-11-18T01:35:30.268Z,95.76
2022-11-18T01:36:30.218Z,95.66
2022-11-18T01:37:30.170Z,95.97
2022-11-18T01:38:30.170Z,95.97
2022-11-18T01:39:30.196Z,96.17
2022-11-18T01:40:30.157Z,96.17
2022-11-18T01:41:30.120Z,96.28
2022-11-18T01:42:30.087Z,96.17
2022-11-18T01:43:30.115Z,96.28
2022-11-18T01:44:30.228Z,96.17
2022-11-18T01:45:30.098Z,96.28
2022-11-18T01:46:30.084Z,96.28
2022-11-18T01:47:30.075Z,96.38
2022-11-18T01:48:30.031Z,96.28
2022-11-18T01:49:30.029Z,96.38
2022-11-18T01:50:30.022Z,96.48
2022-11-18T01:51:30.027Z,96.69
2022-11-18T01:52:29.969Z,96.79
2022-11-18T01:53:29.956Z,97.09
2022-11-18T01:54:29.971Z,97.30
2022-11-18T01:55:29.931Z,97.40
2022-11-18T01:56:29.909Z,97.50
2022-11-18T01:57:29.983Z,97.81
2022-11-18T01:58:29.894Z,98.02
2022-11-18T01:59:29.925Z,98.22
2022-11-18T02:00:29.896Z,98.43
2022-11-18T02:01:29.979Z,98.74
2022-11-18T02:02:29.832Z,99.04
2022-11-18T02:03:29.869Z,99.45
2022-11-18T02:04:29.819Z,99.50
2022-11-18T02:05:29.915Z,99.70
2022-11-18T02:06:29.816Z,99.99
2022-11-18T02:07:29.868Z,99.99
2022-11-18T02:08:29.784Z,99.99
2022-11-18T02:09:29.801Z,99.99
2022-11-18T02:10:29.797Z,99.99
2022-11-18T02:11:29.754Z,99.99
2022-11-18T02:12:29.770Z,99.99
2022-11-18T02:13:29.699Z,99.99
2022-11-18T02:14:29.710Z,99.99
2022-11-18T02:15:29.695Z,99.99
2022-11-18T02:16:29.692Z,99.99
2022-11-18T02:17:29.660Z,99.99
2022-11-18T02:18:29.621Z,99.99
2022-11-18T02:19:29.642Z,99.99
2022-11-18T02:20:29.624Z,99.99
2022-11-18T02:21:29.618Z,99.99
2022-11-18T02:22:29.627Z,99.99
2022-11-18T02:23:29.593Z,99.99
2022-11-18T02:24:29.611Z,99.99
2022-11-18T02:25:29.522Z,99.99
2022-11-18T02:26:29.570Z,99.99
2022-11-18T02:27:29.561Z,99.99
2022-11-18T02:28:29.496Z,99.99
2022-11-18T02:29:29.495Z,99.99
2022-11-18T02:30:29.497Z,99.99
2022-11-18T02:31:29.490Z,99.99
2022-11-18T02:32:29.467Z,99.99
2022-11-18T02:33:29.463Z,99.99
2022-11-18T02:34:29.460Z,99.99
2022-11-18T02:35:29.541Z,99.99
2022-11-18T02:36:29.858Z,99.99
2022-11-18T02:37:29.384Z,99.99
2022-11-18T02:38:29.363Z,99.99
2022-11-18T02:39:29.512Z,99.99
2022-11-18T02:40:29.333Z,99.99
2022-11-18T02:41:29.363Z,99.99
2022-11-18T02:42:29.330Z,99.99
2022-11-18T02:43:29.282Z,99.99
2022-11-18T02:44:29.286Z,99.99
2022-11-18T02:45:29.368Z,99.99
2022-11-18T02:46:29.265Z,99.99
2022-11-18T02:47:29.251Z,99.99
2022-11-18T02:48:36.790Z,99.99
2022-11-18T02:49:29.303Z,99.99
2022-11-18T02:50:29.288Z,99.99
2022-11-18T02:51:29.213Z,99.99
2022-11-18T02:52:29.176Z,99.99
2022-11-18T02:53:29.177Z,99.99
2022-11-18T02:54:29.170Z,99.99
2022-11-18T02:55:29.142Z,99.99
2022-11-18T02:56:29.121Z,99.99
2022-11-18T02:57:29.119Z,99.99
2022-11-18T02:58:29.127Z,99.99
2022-11-18T02:59:29.180Z,99.99
2022-11-18T03:00:29.059Z,99.99
2022-11-18T03:01:29.086Z,99.99
2022-11-18T03:02:29.069Z,99.99
2022-11-18T03:03:29.023Z,99.99
2022-11-18T03:04:29.018Z,99.99
2022-11-18T03:05:28.995Z,99.99
2022-11-18T03:06:28.980Z,99.99
2022-11-18T03:07:29.039Z,99.99
2022-11-18T03:08:28.992Z,99.99
2022-11-18T03:09:28.932Z,99.99
2022-11-18T03:10:28.955Z,99.99
2022-11-18T03:11:28.976Z,99.99
2022-11-18T03:12:28.894Z,99.99
2022-11-18T03:13:28.937Z,99.99
2022-11-18T03:14:29.126Z,99.99
2022-11-18T03:15:28.910Z,99.99
2022-11-18T03:16:28.846Z,99.99
2022-11-18T03:17:28.886Z,99.99
2022-11-18T03:18:28.843Z,99.99
2022-11-18T03:19:28.828Z,99.99
2022-11-18T03:20:28.807Z,99.99
2022-11-18T03:21:28.792Z,99.99
2022-11-18T03:22:28.771Z,99.99
2022-11-18T03:23:28.963Z,99.99
2022-11-18T03:24:28.737Z,99.99
2022-11-18T03:25:28.744Z,99.99
2022-11-18T03:26:28.747Z,99.99
2022-11-18T03:27:28.704Z,99.99
2022-11-18T03:28:28.701Z,99.99
2022-11-18T03:29:28.796Z,99.99
2022-11-18T03:30:28.700Z,99.99
2022-11-18T03:31:28.663Z,99.99
2022-11-18T03:32:28.689Z,99.99
2022-11-18T03:33:28.616Z,99.99
2022-11-18T03:34:28.688Z,99.99
2022-11-18T03:35:28.602Z,99.99
2022-11-18T03:36:28.588Z,99.99
2022-11-18T03:37:28.956Z,99.99
2022-11-18T03:38:28.567Z,99.99
2022-11-18T03:39:28.544Z,99.99
2022-11-18T03:40:28.555Z,99.99
2022-11-18T03:41:28.520Z,99.99
2022-11-18T03:42:28.515Z,99.99
2022-11-18T03:43:28.490Z,99.99
2022-11-18T03:44:28.489Z,99.99
2022-11-18T03:45:28.480Z,99.99
2022-11-18T03:47:52.323Z,99.99
2022-11-18T03:48:52.271Z,99.99
2022-11-18T03:49:52.266Z,99.99
2022-11-18T03:50:52.241Z,99.99
2022-11-18T03:51:52.285Z,99.99
2022-11-18T03:52:52.260Z,99.99
2022-11-18T03:53:52.282Z,99.99
2022-11-18T03:54:52.218Z,99.99
2022-11-18T03:55:52.206Z,99.99
2022-11-18T03:56:52.169Z,99.99
2022-11-18T03:57:52.163Z,99.99
2022-11-18T03:58:52.161Z,99.99
2022-11-18T03:59:52.126Z,99.99
2022-11-18T04:00:52.129Z,99.99
2022-11-18T04:01:52.238Z,99.99
2022-11-18T04:02:52.083Z,99.99
2022-11-18T04:03:52.113Z,99.99
2022-11-18T04:04:52.103Z,99.99
2022-11-18T04:05:52.041Z,99.99
2022-11-18T04:06:52.145Z,99.99
2022-11-18T04:07:52.059Z,99.99
2022-11-18T04:08:52.030Z,99.99
2022-11-18T04:09:52.019Z,99.99
2022-11-18T04:10:52.052Z,99.99
2022-11-18T04:11:51.987Z,99.99
2022-11-18T04:12:51.959Z,99.99
2022-11-18T04:13:51.961Z,99.99
2022-11-18T04:14:51.958Z,99.99
2022-11-18T04:15:51.929Z,99.99
2022-11-18T04:16:51.909Z,99.99
2022-11-18T04:17:51.901Z,99.99
2022-11-18T04:18:51.899Z,99.99
2022-11-18T04:19:51.871Z,99.99
2022-11-18T04:20:51.873Z,99.99
2022-11-18T04:21:51.839Z,99.99
2022-11-18T04:22:51.846Z,99.99
2022-11-18T04:23:51.818Z,99.99
2022-11-18T04:24:51.853Z,99.99
2022-11-18T04:25:51.789Z,99.99
2022-11-18T04:26:51.779Z,99.99
2022-11-18T04:27:51.785Z,99.99
2022-11-18T04:28:51.748Z,99.99
2022-11-18T04:29:51.748Z,99.99
2022-11-18T04:30:51.773Z,99.99
2022-11-18T04:31:51.721Z,99.99
2022-11-18T04:32:51.689Z,99.99
2022-11-18T04:33:51.737Z,99.99
2022-11-18T04:34:51.672Z,99.99
2022-11-18T04:35:51.688Z,99.99
2022-11-18T04:36:51.654Z,99.99
2022-11-18T04:37:51.651Z,99.99
2022-11-18T04:40:12.294Z,99.99
2022-11-18T04:41:21.003Z,99.99
2022-11-18T04:44:44.504Z,99.99
2022-11-18T04:45:44.476Z,99.99
2022-11-18T04:46:44.497Z,99.99
2022-11-18T04:47:44.451Z,99.99
2022-11-18T04:48:44.422Z,99.99
2022-11-18T04:49:44.427Z,99.99
2022-11-18T04:50:44.398Z,99.99
2022-11-18T04:51:44.379Z,99.99
2022-11-18T04:52:44.403Z,99.99
2022-11-18T04:53:44.356Z,99.99
2022-11-18T04:54:44.325Z,99.99
2022-11-18T04:55:44.376Z,99.99
2022-11-18T04:56:49.076Z,99.99
2022-11-18T04:57:45.292Z,99.99
2022-11-18T04:58:44.291Z,99.99
2022-11-18T04:59:44.258Z,99.99
2022-11-18T05:00:44.263Z,99.99
2022-11-18T05:01:44.311Z,99.99
2022-11-18T05:02:44.243Z,99.99
2022-11-18T05:03:50.301Z,99.99
2022-11-18T05:04:45.237Z,99.99
2022-11-18T05:05:44.191Z,99.99
2022-11-18T05:06:44.229Z,99.99
2022-11-18T05:07:44.232Z,99.99
2022-11-18T05:08:44.170Z,99.99
2022-11-18T05:09:44.148Z,99.99
2022-11-18T05:10:44.143Z,99.99
2022-11-18T05:11:44.143Z,99.99
2022-11-18T05:12:44.122Z,99.99
2022-11-18T05:13:44.233Z,99.99
2022-11-18T05:14:49.289Z,99.99
2022-11-18T05:15:45.094Z,99.99
2022-11-18T05:16:44.050Z,99.99
2022-11-18T05:17:44.025Z,99.99
2022-11-18T05:18:44.136Z,99.99
2022-11-18T05:19:44.010Z,99.99
2022-11-18T05:20:44.047Z,99.99
2022-11-18T05:21:43.975Z,99.99
2022-11-18T05:22:44.027Z,99.99
2022-11-18T05:23:43.974Z,99.99
2022-11-18T05:24:43.963Z,99.99
2022-11-18T05:25:43.937Z,99.99
2022-11-18T05:26:43.928Z,99.99
2022-11-18T05:27:43.926Z,99.99
2022-11-18T05:28:43.906Z,99.99
2022-11-18T05:29:43.898Z,99.99
2022-11-18T05:30:43.879Z,99.99
2022-11-18T05:31:43.863Z,99.99
2022-11-18T05:32:43.858Z,99.99
2022-11-18T05:33:43.825Z,99.99
2022-11-18T05:34:43.863Z,99.99
2022-11-18T05:35:43.804Z,99.99
2022-11-18T05:36:43.809Z,99.99
2022-11-18T05:37:43.851Z,99.99
2022-11-18T05:38:43.856Z,99.99
2022-11-18T05:39:43.754Z,99.99
2022-11-18T05:40:43.755Z,99.99
2022-11-18T05:41:43.760Z,99.99
2022-11-18T05:42:43.722Z,99.99
2022-11-18T05:43:43.699Z,99.99
2022-11-18T05:44:43.694Z,99.99
2022-11-18T05:45:43.708Z,99.99
2022-11-18T05:46:43.676Z,99.99
2022-11-18T05:47:43.660Z,99.99
2022-11-18T05:48:43.885Z,99.99
2022-11-18T05:49:43.683Z,99.99
2022-11-18T05:50:43.606Z,99.99
2022-11-18T05:51:43.595Z,99.99
2022-11-18T05:52:43.664Z,99.99
2022-11-18T05:53:43.575Z,99.99
2022-11-18T05:54:43.582Z,99.99
2022-11-18T05:55:43.529Z,99.99
2022-11-18T05:56:43.539Z,99.99
2022-11-18T05:57:43.539Z,99.99
2022-11-18T05:58:43.546Z,99.99
2022-11-18T05:59:43.558Z,99.99
2022-11-18T06:00:43.610Z,99.99
2022-11-18T06:01:43.505Z,99.99
2022-11-18T06:02:43.518Z,99.99
2022-11-18T06:03:43.468Z,99.99
2022-11-18T06:04:43.472Z,99.99
2022-11-18T06:05:43.441Z,99.99
2022-11-18T06:06:43.479Z,99.99
2022-11-18T06:07:43.552Z,99.99
2022-11-18T06:08:43.403Z,99.99
2022-11-18T06:09:43.399Z,99.99
2022-11-18T06:10:43.385Z,99.99
2022-11-18T06:11:43.364Z,99.99
2022-11-18T06:12:43.333Z,99.99
2022-11-18T06:13:43.305Z,99.99
2022-11-18T06:14:43.372Z,99.99
2022-11-18T06:15:43.306Z,99.99
2022-11-18T06:16:43.290Z,99.99
2022-11-18T06:17:43.316Z,99.99
2022-11-18T06:18:43.400Z,99.99
2022-11-18T06:19:43.366Z,99.99
2022-11-18T06:20:43.255Z,99.99
2022-11-18T06:21:43.283Z,99.99
2022-11-18T06:22:46.552Z,99.99
2022-11-18T06:23:43.230Z,99.99
2022-11-18T06:24:43.238Z,99.99
2022-11-18T06:25:43.196Z,99.99
2022-11-18T06:26:43.361Z,99.99
2022-11-18T06:27:43.169Z,99.99
2022-11-18T06:28:43.147Z,99.99
2022-11-18T06:29:43.180Z,99.99
2022-11-18T06:30:43.124Z,99.99
2022-11-18T06:31:43.222Z,99.99
2022-11-18T06:32:43.141Z,99.99
2022-11-18T06:33:43.295Z,99.99
2022-11-18T06:34:43.091Z,99.99
2022-11-18T06:35:43.087Z,99.99
2022-11-18T06:36:43.049Z,99.99
2022-11-18T06:37:43.062Z,99.99
2022-11-18T06:38:43.039Z,99.99
2022-11-18T06:39:43.054Z,99.99
2022-11-18T06:40:43.033Z,99.99
2022-11-18T06:41:43.401Z,99.99
2022-11-18T06:42:43.098Z,99.99
2022-11-18T06:43:43.072Z,99.99
2022-11-18T06:44:43.186Z,99.99
2022-11-18T06:45:43.001Z,99.99
2022-11-18T06:47:00.510Z,99.99
2022-11-18T06:47:43.035Z,99.99
2022-11-18T06:48:42.955Z,99.99
2022-11-18T06:49:42.928Z,99.99
2022-11-18T06:50:42.908Z,99.99
2022-11-18T06:51:43.403Z,99.99
2022-11-18T06:52:42.934Z,99.99
2022-11-18T06:53:42.807Z,99.99
2022-11-18T06:54:42.870Z,99.99
2022-11-18T06:55:42.865Z,99.99
2022-11-18T06:56:42.919Z,99.99
2022-11-18T06:57:42.784Z,99.99
2022-11-18T06:58:42.885Z,99.99
2022-11-18T06:59:42.802Z,99.99
2022-11-18T07:00:42.838Z,99.99
2022-11-18T07:01:42.805Z,99.99
2022-11-18T07:02:42.764Z,99.99
2022-11-18T07:03:43.714Z,99.99
2022-11-18T07:04:42.763Z,99.99
2022-11-18T07:05:42.696Z,99.99
2022-11-18T07:06:42.696Z,99.99
2022-11-18T07:07:42.762Z,99.99
2022-11-18T07:08:42.740Z,99.99
2022-11-18T07:09:42.663Z,99.99
2022-11-18T07:10:42.732Z,99.99
2022-11-18T07:11:42.724Z,99.99
2022-11-18T07:12:42.651Z,99.99
2022-11-18T07:13:43.962Z,99.99
2022-11-18T07:14:42.651Z,99.99
2022-11-18T07:15:42.568Z,99.99
2022-11-18T07:16:42.551Z,99.99
2022-11-18T07:17:42.555Z,99.99
2022-11-18T07:18:42.625Z,99.99
2022-11-18T07:19:42.640Z,99.99
2022-11-18T07:20:42.530Z,99.99
2022-11-18T07:21:42.524Z,99.99
2022-11-18T07:22:42.550Z,99.99
2022-11-18T07:23:42.519Z,99.99
2022-11-18T07:24:42.479Z,99.99
2022-11-18T07:25:45.246Z,99.99
2022-11-18T07:28:23.215Z,99.99
2022-11-18T07:29:22.849Z,99.99
2022-11-18T07:30:22.894Z,99.99
2022-11-18T07:31:22.768Z,99.99
2022-11-18T07:32:22.800Z,99.99
2022-11-18T07:33:22.942Z,99.99
2022-11-18T07:34:22.890Z,99.99
2022-11-18T07:35:22.648Z,99.99
2022-11-18T07:36:22.845Z,99.99
2022-11-18T07:37:22.827Z,99.99
2022-11-18T07:38:22.694Z,99.99
2022-11-18T07:39:22.782Z,99.99
2022-11-18T07:40:22.683Z,99.99
2022-11-18T07:41:22.603Z,99.99
2022-11-18T07:42:22.594Z,99.99
2022-11-18T07:43:22.896Z,99.99
2022-11-18T07:44:22.559Z,99.99
2022-11-18T07:45:22.574Z,99.99
2022-11-18T07:46:22.608Z,99.99
2022-11-18T07:47:22.553Z,99.99
2022-11-18T07:48:22.560Z,99.99
2022-11-18T07:49:22.561Z,99.99
2022-11-18T07:50:22.507Z,99.99
2022-11-18T07:51:22.592Z,99.99
2022-11-18T07:52:22.458Z,99.99
2022-11-18T07:53:22.581Z,99.99
2022-11-18T07:54:22.563Z,99.99
2022-11-18T07:55:22.443Z,99.99
2022-11-18T07:56:22.432Z,99.99
2022-11-18T07:57:22.475Z,99.99
2022-11-18T07:58:22.517Z,99.99
2022-11-18T07:59:22.481Z,99.99
2022-11-18T08:00:22.431Z,99.99
2022-11-18T08:01:22.884Z,99.99
2022-11-18T08:02:22.373Z,99.99
2022-11-18T08:03:22.451Z,99.99
2022-11-18T08:04:22.560Z,99.99
2022-11-18T08:05:22.375Z,99.99
2022-11-18T08:06:22.634Z,99.99
2022-11-18T08:07:22.322Z,99.99
2022-11-18T08:08:22.596Z,99.99
2022-11-18T08:09:22.279Z,99.99
2022-11-18T08:10:22.255Z,99.99
2022-11-18T08:11:23.149Z,99.99
2022-11-18T08:12:22.428Z,99.99
2022-11-18T08:13:22.444Z,99.99
2022-11-18T08:14:22.237Z,99.99
2022-11-18T08:15:22.325Z,99.99
2022-11-18T08:16:22.371Z,99.99
2022-11-18T08:17:22.248Z,99.99
2022-11-18T08:18:22.146Z,99.99
2022-11-18T08:19:22.205Z,99.99
2022-11-18T08:20:22.381Z,99.99
2022-11-18T08:21:22.150Z,99.99
2022-11-18T08:22:23.417Z,99.99
2022-11-18T08:23:23.439Z,99.99
2022-11-18T08:24:22.275Z,99.99
2022-11-18T08:25:22.433Z,99.99
2022-11-18T08:26:22.166Z,99.99
2022-11-18T08:27:23.140Z,99.99
2022-11-18T08:28:22.218Z,99.99
2022-11-18T08:29:25.432Z,99.99
2022-11-18T08:30:21.984Z,99.99
2022-11-18T08:31:22.499Z,99.99
2022-11-18T08:32:23.227Z,99.99
2022-11-18T08:33:22.195Z,99.99
2022-11-18T08:34:22.099Z,99.99
2022-11-18T08:35:22.304Z,99.99
2022-11-18T08:36:34.021Z,99.99
2022-11-18T08:37:22.086Z,99.99
2022-11-18T08:38:22.936Z,99.99
2022-11-18T08:39:21.860Z,99.99
2022-11-18T08:40:21.834Z,99.99
2022-11-18T08:41:21.824Z,99.99
2022-11-18T08:44:58.602Z,99.99
2022-11-18T08:45:58.375Z,99.99
2022-11-18T08:46:58.609Z,99.99
2022-11-18T08:47:58.653Z,99.99
2022-11-18T08:48:58.323Z,99.99
2022-11-18T08:49:58.329Z,99.99
2022-11-18T08:50:58.365Z,99.99
2022-11-18T08:51:58.304Z,99.99
2022-11-18T08:52:58.353Z,99.99
2022-11-18T08:53:58.224Z,99.99
2022-11-18T08:54:58.193Z,99.99
2022-11-18T08:55:58.193Z,99.99
2022-11-18T08:56:58.192Z,99.99
2022-11-18T08:57:58.189Z,99.99
2022-11-18T08:58:58.178Z,99.99
2022-11-18T08:59:58.184Z,99.99
2022-11-18T09:00:58.146Z,99.99
2022-11-18T09:01:58.191Z,99.99
2022-11-18T09:02:58.102Z,99.99
2022-11-18T09:03:58.205Z,99.99
2022-11-18T09:04:58.076Z,99.99
2022-11-18T09:05:58.071Z,99.99
2022-11-18T09:06:58.209Z,99.99
2022-11-18T09:07:58.134Z,99.99
2022-11-18T09:09:00.772Z,99.99
2022-11-18T09:09:59.297Z,99.99
2022-11-18T09:10:58.103Z,99.99
2022-11-18T09:11:58.467Z,99.99
2022-11-18T09:13:12.181Z,99.99
2022-11-18T09:15:15.300Z,99.99
2022-11-18T09:15:59.059Z,99.99
2022-11-18T09:16:58.859Z,99.99
2022-11-18T09:17:57.904Z,99.99
2022-11-18T09:18:57.909Z,99.99
2022-11-18T09:19:57.855Z,99.99
2022-11-18T09:20:57.899Z,99.99
2022-11-18T09:21:57.880Z,99.99
2022-11-18T09:22:57.842Z,99.99
2022-11-18T09:23:57.869Z,99.99
2022-11-18T09:24:57.841Z,99.99
2022-11-18T09:25:57.820Z,99.99
2022-11-18T09:26:57.752Z,99.99
2022-11-18T09:27:57.772Z,99.99
2022-11-18T09:28:57.723Z,99.99
2022-11-18T09:29:57.738Z,99.99
2022-11-18T09:30:57.784Z,99.99
2022-11-18T09:31:57.742Z,99.99
2022-11-18T09:32:57.715Z,99.99
2022-11-18T09:33:57.705Z,99.99
2022-11-18T09:34:57.703Z,99.99
2022-11-18T09:35:57.740Z,99.99
2022-11-18T09:36:57.605Z,99.99
2022-11-18T09:37:57.629Z,99.99
2022-11-18T09:39:08.493Z,99.99
2022-11-18T09:39:57.607Z,99.99
2022-11-18T09:40:58.567Z,99.99
2022-11-18T09:41:57.594Z,99.99
2022-11-18T09:42:57.555Z,99.99
2022-11-18T09:43:57.924Z,99.99
2022-11-18T09:44:57.762Z,99.99
2022-11-18T09:45:57.520Z,99.99
2022-11-18T09:46:57.479Z,99.99
2022-11-18T09:47:57.468Z,99.99
2022-11-18T09:48:57.484Z,99.99
2022-11-18T09:49:57.470Z,99.99
2022-11-18T09:50:57.422Z,99.99
2022-11-18T09:51:58.055Z,99.99
2022-11-18T09:52:57.409Z,99.99
2022-11-18T09:53:57.446Z,99.99
2022-11-18T09:54:57.380Z,99.99
2022-11-18T09:55:57.402Z,99.99
2022-11-18T09:56:57.431Z,99.99
2022-11-18T09:57:57.342Z,99.99
2022-11-18T09:58:57.305Z,99.99
2022-11-18T09:59:57.316Z,99.99
2022-11-18T10:00:57.291Z,99.99
2022-11-18T10:01:57.355Z,99.99
2022-11-18T10:02:57.292Z,99.06
2022-11-18T10:03:57.296Z,94.89
2022-11-18T10:04:57.252Z,97.19
2022-11-18T10:05:57.223Z,97.85
2022-11-18T10:06:57.263Z,98.66
2022-11-18T10:07:57.259Z,97.96
2022-11-18T10:08:57.202Z,97.14
2022-11-18T10:09:57.178Z,96.47
2022-11-18T10:10:57.202Z,91.48
2022-11-18T10:11:57.142Z,96.00
2022-11-18T10:12:57.131Z,95.84
2022-11-18T10:13:57.123Z,97.21
2022-11-18T10:14:57.083Z,95.73
2022-11-18T10:15:57.066Z,96.23
2022-11-18T10:17:05.869Z,94.14
2022-11-18T10:18:08.779Z,96.38
2022-11-18T10:19:01.169Z,97.56
2022-11-18T10:19:57.255Z,96.54
2022-11-18T10:20:56.989Z,94.24
2022-11-18T10:21:57.024Z,93.57
2022-11-18T10:23:04.634Z,93.88
2022-11-18T10:23:57.199Z,95.41
2022-11-18T10:24:57.036Z,96.43
2022-11-18T10:25:57.029Z,95.56
2022-11-18T10:26:56.947Z,95.56
2022-11-18T10:27:56.891Z,93.96
2022-11-18T10:28:56.992Z,95.09
2022-11-18T10:29:56.889Z,94.52
2022-11-18T10:30:56.964Z,95.34
2022-11-18T10:31:59.647Z,96.05
2022-11-18T10:32:57.863Z,96.77
2022-11-18T10:33:56.872Z,96.83
2022-11-18T10:34:56.847Z,95.56
2022-11-18T10:35:56.968Z,95.31
2022-11-18T10:36:56.878Z,92.19
2022-11-18T10:38:12.219Z,94.12
2022-11-18T10:38:57.797Z,93.98
2022-11-18T10:39:56.783Z,94.65
2022-11-18T10:40:56.741Z,94.90
2022-11-18T10:41:56.791Z,95.10
2022-11-18T10:42:56.729Z,94.49
2022-11-18T10:43:56.743Z,93.41
2022-11-18T10:44:56.705Z,93.92
2022-11-18T10:45:56.813Z,94.23
2022-11-18T10:46:56.643Z,94.53
2022-11-18T10:47:56.637Z,94.58
2022-11-18T10:48:56.623Z,93.86
2022-11-18T10:49:56.644Z,93.91
2022-11-18T10:50:56.604Z,95.19
2022-11-18T10:51:56.597Z,94.89
2022-11-18T10:52:56.629Z,96.42
2022-11-18T10:53:56.605Z,96.31
2022-11-18T10:54:56.567Z,96.88
2022-11-18T10:55:56.501Z,95.60
2022-11-18T10:56:58.323Z,95.29
2022-11-18T10:57:56.524Z,96.06
2022-11-18T10:58:56.612Z,92.76
2022-11-18T10:59:56.953Z,93.22
2022-11-18T11:00:56.931Z,92.57
2022-11-18T11:01:57.546Z,93.28
2022-11-18T11:02:57.484Z,91.96
2022-11-18T11:03:57.511Z,90.41
2022-11-18T11:04:57.855Z,92.35
2022-11-18T11:05:57.855Z,91.18
2022-11-18T11:06:56.531Z,93.84
2022-11-18T11:08:14.386Z,92.14
2022-11-18T11:08:57.370Z,91.78
2022-11-18T11:09:56.438Z,92.69
2022-11-18T11:10:56.346Z,93.10
2022-11-18T11:11:56.293Z,94.02
2022-11-18T11:12:56.280Z,94.43
2022-11-18T11:13:56.265Z,95.31
2022-11-18T11:14:56.342Z,94.38
2022-11-18T11:15:56.254Z,94.55
2022-11-18T11:16:56.304Z,92.65
2022-11-18T11:17:56.277Z,92.45
2022-11-18T11:18:56.217Z,94.91
2022-11-18T11:19:56.199Z,93.29
2022-11-18T11:20:56.228Z,91.42
2022-11-18T11:21:56.168Z,87.49
2022-11-18T11:22:56.158Z,88.90
2022-11-18T11:23:56.127Z,89.30
2022-11-18T11:24:56.139Z,89.96
2022-11-18T11:28:57.117Z,90.71
2022-11-18T11:29:56.048Z,91.02
2022-11-18T11:30:56.045Z,89.79
2022-11-18T11:31:56.047Z,88.71
2022-11-18T11:32:56.015Z,91.27
2022-11-18T11:33:56.139Z,92.19
2022-11-18T11:34:56.005Z,91.47
2022-11-18T11:35:55.933Z,91.16
2022-11-18T11:36:56.020Z,91.67
2022-11-18T11:37:55.929Z,92.29
2022-11-18T11:39:01.319Z,92.49
2022-11-18T11:39:56.902Z,93.31
2022-11-18T11:40:55.906Z,94.12
2022-11-18T11:41:55.864Z,92.19
2022-11-18T11:42:55.898Z,90.08
2022-11-18T11:43:55.867Z,91.88
2022-11-18T11:44:55.872Z,92.69
2022-11-18T11:45:55.808Z,92.49
2022-11-18T11:46:55.850Z,93.31
2022-11-18T11:47:55.860Z,93.31
2022-11-18T11:48:55.822Z,92.80
2022-11-18T11:49:55.741Z,91.78
2022-11-18T11:51:03.570Z,92.80
2022-11-18T11:51:56.754Z,92.24
2022-11-18T11:52:55.711Z,91.83
2022-11-18T11:53:55.718Z,89.69
2022-11-18T11:54:55.680Z,88.78
2022-11-18T11:55:55.681Z,90.81
2022-11-18T11:56:55.712Z,90.92
2022-11-18T11:57:55.662Z,91.39
2022-11-18T11:58:55.629Z,89.45
2022-11-18T11:59:55.675Z,88.53
2022-11-18T12:00:55.647Z,88.73
2022-11-18T12:01:55.595Z,89.75
2022-11-18T12:02:55.710Z,86.90
2022-11-18T12:03:55.548Z,88.02
2022-11-18T12:04:55.552Z,86.80
2022-11-18T12:05:55.527Z,88.22
2022-11-18T12:06:55.640Z,88.63
2022-11-18T12:07:55.565Z,87.37
2022-11-18T12:08:55.527Z,86.68
2022-11-18T12:09:55.494Z,87.55
2022-11-18T12:10:55.444Z,86.94
2022-11-18T12:11:55.452Z,85.72
2022-11-18T12:12:55.422Z,86.13
2022-11-18T12:13:55.462Z,84.42
2022-11-18T12:14:55.543Z,85.80
2022-11-18T12:15:55.417Z,85.74
2022-11-18T12:16:55.413Z,84.62
2022-11-18T12:17:55.359Z,83.74
2022-11-18T12:18:55.402Z,84.35
2022-11-18T12:19:55.324Z,84.56
2022-11-18T12:20:55.371Z,83.29
2022-11-18T12:21:55.348Z,84.38
2022-11-18T12:22:55.325Z,83.70
2022-11-18T12:23:55.291Z,83.13
2022-11-18T12:24:55.237Z,85.47
2022-11-18T12:25:55.226Z,85.78
2022-11-18T12:26:55.293Z,85.47
2022-11-18T12:27:58.759Z,86.02
2022-11-18T12:28:55.193Z,87.35
2022-11-18T12:29:55.191Z,87.45
2022-11-18T12:30:55.217Z,85.21
2022-11-18T12:31:55.133Z,84.29
2022-11-18T12:32:55.371Z,85.82
2022-11-18T12:33:55.113Z,85.61
2022-11-18T12:34:55.113Z,87.65
2022-11-18T12:35:55.157Z,87.20
2022-11-18T12:36:55.087Z,84.09
2022-11-18T12:37:55.102Z,84.80
2022-11-18T12:38:55.071Z,85.66
2022-11-18T12:39:55.226Z,85.45
2022-11-18T12:40:55.084Z,85.14
2022-11-18T12:41:55.099Z,84.74
2022-11-18T12:42:55.043Z,83.72
2022-11-18T12:43:55.021Z,84.78
2022-11-18T12:44:54.972Z,86.41
2022-11-18T12:45:54.942Z,87.94
2022-11-18T12:46:54.965Z,87.84
2022-11-18T12:47:54.924Z,87.73
2022-11-18T12:48:54.970Z,86.41
2022-11-18T12:49:55.003Z,87.84
2022-11-18T12:50:54.899Z,85.69
2022-11-18T12:51:54.915Z,85.28
2022-11-18T12:52:54.953Z,85.55
2022-11-18T12:53:54.900Z,86.33
2022-11-18T12:54:54.931Z,85.27
2022-11-18T12:55:54.878Z,83.44
2022-11-18T12:56:54.824Z,82.18
2022-11-18T12:57:54.780Z,81.33
2022-11-18T12:58:54.776Z,84.07
2022-11-18T12:59:54.900Z,82.34
2022-11-18T13:00:54.816Z,83.09
2022-11-18T13:01:54.780Z,84.92
2022-11-18T13:02:54.818Z,81.71
2022-11-18T13:03:54.700Z,81.65
2022-11-18T13:04:55.380Z,82.26
2022-11-18T13:05:54.721Z,84.53